METAR Data
IDs: Format: Raw Decoded Include TAF

Data at: 0947 UTC 18 Jan 2019

PAIK 180856Z AUTO 11006KT 10SM SCT046 OVC060 M12/M17 A2993 RMK AO2 SLP143 T11171167 410831122 53010 FZRANO
PAIK 180756Z AUTO 14006KT 10SM BKN060 BKN070 BKN110 M12/M16 A2992 RMK AO2 SLP140 T11171161 FZRANO
PAIK 180656Z AUTO 11008KT 10SM SCT046 OVC065 M11/M16 A2991 RMK AO2 SLP135 T11061156 FZRANO
PAIK 180556Z AUTO 10012KT 10SM OVC080 M11/M16 A2990 RMK AO2 SLP133 T11061161 11083 21111 53002 FZRANO
PAIK 180456Z AUTO 13007KT 10SM OVC090 M10/M16 A2990 RMK AO2 SLP131 T11001156 FZRANO
PAIK 180356Z AUTO 10010KT 10SM OVC085 M09/M16 A2990 RMK AO2 SLP131 T10941156 FZRANO
PAIK 180256Z AUTO 11011KT 10SM OVC085 M09/M16 A2990 RMK AO2 SLP131 T10941156 53007 FZRANO
PAIK 180156Z AUTO 10012G18KT 10SM BKN085 M09/M16 A2988 RMK AO2 SLP124 T10891156 FZRANO
PAIK 180056Z AUTO 11010KT 10SM BKN075 M11/M16 A2989 RMK AO2 SLP127 T11061161 FZRANO
PAIK 172356Z AUTO 12014G25KT 10SM FEW075 M09/M16 A2988 RMK AO2 SLP124 T10891156 11083 21122 55002 FZRANO
PAIK 172256Z AUTO 12017G27KT 10SM OVC075 M09/M16 A2987 RMK AO2 PK WND 12027/2250 SLP122 T10891156 FZRANO
PAIK 172156Z AUTO 12004KT 10SM SCT085 M11/M16 A2988 RMK AO2 SLP126 T11061161 FZRANO
PAIK 172056Z AUTO 12009KT 10SM BKN075 BKN120 M11/M16 A2989 RMK AO2 SLP126 T11111161 53001 FZRANO
PAIK 171956Z AUTO 09010KT 10SM CLR M10/M16 A2988 RMK AO2 SLP126 T11001156 FZRANO
PAIK 171856Z AUTO 09005KT 10SM CLR M11/M16 A2988 RMK AO2 SLP124 T11111161 FZRANO
PAIK 171756Z AUTO 00000KT 10SM CLR M12/M17 A2988 RMK AO2 SLP125 T11221167 11100 21122 55001 FZRANO
PAIK 171656Z AUTO 12014KT 10SM CLR M11/M16 A2988 RMK AO2 SLP123 T11061161 FZRANO
PAIK 171556Z AUTO 09005KT 10SM CLR M11/M16 A2988 RMK AO2 SLP124 T11061156 FZRANO
PAIK 171456Z AUTO 11004KT 10SM CLR M11/M16 A2988 RMK AO2 SLP126 T11111161 58002 FZRANO
PAIK 171356Z AUTO 13005KT 10SM CLR M11/M16 A2988 RMK AO2 SLP126 T11111161 FZRANO
PAIK 171256Z AUTO 13007KT 10SM CLR M11/M16 A2989 RMK AO2 SLP129 T11061156 FZRANO
PAIK 171156Z AUTO 10006KT 10SM CLR M11/M16 A2989 RMK AO2 SLP128 T11061156 11100 21111 50001 FZRANO
PAIK 171056Z AUTO 08009KT 10SM CLR M11/M15 A2989 RMK AO2 SLP128 T11061150 FZRANO
PAIK 170956Z AUTO 11008KT 10SM CLR M11/M15 A2990 RMK AO2 SLP130 T11061150 FZRANO
PAIK 170856Z AUTO 09012G17KT 10SM CLR M10/M15 A2989 RMK AO2 SLP127 T11001150 410561117 53001 FZRANO
PAIK 170756Z AUTO 10011G17KT 10SM CLR M11/M15 A2989 RMK AO2 SLP127 T11061150 FZRANO
PAIK 170656Z AUTO 08007KT 10SM CLR M11/M15 A2987 RMK AO2 SLP122 T11111150 FZRANO
PAIK 170556Z AUTO 11009KT 10SM CLR M11/M15 A2988 RMK AO2 SLP126 T11061150 11089 21117 55005 FZRANO
PAIK 170456Z AUTO 10008KT 10SM CLR M11/M15 A2988 RMK AO2 SLP126 T11111150 FZRANO
PAIK 170356Z AUTO 08011KT 10SM CLR M11/M14 A2990 RMK AO2 SLP132 T11111144 FZRANO
PAIK 170256Z AUTO 09012G19KT 10SM CLR M10/M14 A2990 RMK AO2 SLP131 T11001139 55010 FZRANO
PAIK 170156Z AUTO 10010G16KT 10SM CLR M09/M13 A2989 RMK AO2 SLP128 T10891133 FZRANO
PAIK 170056Z AUTO 09006KT 10SM CLR M10/M14 A2991 RMK AO2 SLP134 T11001139 FZRANO
PAIK 162356Z AUTO 11006KT 10SM CLR M09/M13 A2993 RMK AO2 SLP141 T10891133 11061 21094 58002 FZRANO
PAIK 162256Z AUTO 10009KT 10SM CLR M09/M13 A2993 RMK AO2 SLP142 T10891133 FZRANO
PAIK 162156Z AUTO 00000KT 10SM CLR M09/M13 A2994 RMK AO2 SLP145 T10941128 FZRANO